sensor_id;sensor_type;location;lat;lon;timestamp;pressure;altitude;pressure_sealevel;temperature;humidity
40245;BME280;25963;42.694;23.600;2023-06-22T00:01:47;95601.13;;;18.56;100.00
40245;BME280;25963;42.694;23.600;2023-06-22T00:04:13;95603.06;;;18.66;100.00
40245;BME280;25963;42.694;23.600;2023-06-22T00:06:38;95617.13;;;18.51;100.00
40245;BME280;25963;42.694;23.600;2023-06-22T00:09:04;95605.38;;;18.52;100.00
40245;BME280;25963;42.694;23.600;2023-06-22T00:11:29;95613.41;;;18.57;100.00
40245;BME280;25963;42.694;23.600;2023-06-22T00:13:56;95620.53;;;18.41;100.00
40245;BME280;25963;42.694;23.600;2023-06-22T00:16:22;95627.72;;;18.41;100.00
40245;BME280;25963;42.694;23.600;2023-06-22T00:18:47;95624.22;;;18.35;100.00
40245;BME280;25963;42.694;23.600;2023-06-22T00:21:14;95622.63;;;18.34;100.00
40245;BME280;25963;42.694;23.600;2023-06-22T00:23:39;95614.56;;;18.29;100.00
40245;BME280;25963;42.694;23.600;2023-06-22T00:26:04;95619.75;;;18.14;100.00
40245;BME280;25963;42.694;23.600;2023-06-22T00:28:30;95630.00;;;18.22;100.00
40245;BME280;25963;42.694;23.600;2023-06-22T00:30:55;95616.28;;;18.13;100.00
40245;BME280;25963;42.694;23.600;2023-06-22T00:33:21;95598.66;;;18.12;100.00
40245;BME280;25963;42.694;23.600;2023-06-22T00:35:46;95604.88;;;18.23;100.00
40245;BME280;25963;42.694;23.600;2023-06-22T00:38:12;95606.78;;;18.28;100.00
40245;BME280;25963;42.694;23.600;2023-06-22T00:40:37;95607.00;;;18.21;100.00
40245;BME280;25963;42.694;23.600;2023-06-22T00:43:04;95616.19;;;18.03;100.00
40245;BME280;25963;42.694;23.600;2023-06-22T00:45:30;95622.66;;;18.07;100.00
40245;BME280;25963;42.694;23.600;2023-06-22T00:47:57;95615.94;;;17.77;100.00
40245;BME280;25963;42.694;23.600;2023-06-22T00:50:25;95608.66;;;17.95;100.00
40245;BME280;25963;42.694;23.600;2023-06-22T00:52:52;95605.28;;;18.05;100.00
40245;BME280;25963;42.694;23.600;2023-06-22T00:55:22;95614.84;;;17.51;100.00
40245;BME280;25963;42.694;23.600;2023-06-22T00:57:48;95583.19;;;17.60;100.00
40245;BME280;25963;42.694;23.600;2023-06-22T01:00:17;95614.00;;;17.73;100.00
40245;BME280;25963;42.694;23.600;2023-06-22T01:02:44;95594.41;;;17.62;100.00
40245;BME280;25963;42.694;23.600;2023-06-22T01:05:18;95605.25;;;17.55;100.00
40245;BME280;25963;42.694;23.600;2023-06-22T01:13:32;95602.09;;;17.81;100.00
40245;BME280;25963;42.694;23.600;2023-06-22T01:16:05;95592.41;;;17.74;100.00
40245;BME280;25963;42.694;23.600;2023-06-22T01:18:35;95599.34;;;17.75;100.00
40245;BME280;25963;42.694;23.600;2023-06-22T01:21:04;95592.91;;;17.71;100.00
40245;BME280;25963;42.694;23.600;2023-06-22T01:28:49;95613.91;;;17.19;100.00
40245;BME280;25963;42.694;23.600;2023-06-22T01:31:22;95607.56;;;17.47;100.00
40245;BME280;25963;42.694;23.600;2023-06-22T01:33:51;95600.25;;;17.59;100.00
40245;BME280;25963;42.694;23.600;2023-06-22T01:36:19;95601.41;;;17.68;100.00
40245;BME280;25963;42.694;23.600;2023-06-22T01:38:46;95608.75;;;17.56;100.00
40245;BME280;25963;42.694;23.600;2023-06-22T01:41:13;95603.34;;;17.51;100.00
40245;BME280;25963;42.694;23.600;2023-06-22T01:43:39;95603.19;;;17.36;100.00
40245;BME280;25963;42.694;23.600;2023-06-22T01:46:05;95606.09;;;17.34;100.00
40245;BME280;25963;42.694;23.600;2023-06-22T01:48:31;95599.72;;;17.35;100.00
40245;BME280;25963;42.694;23.600;2023-06-22T01:50:57;95603.72;;;17.38;100.00
40245;BME280;25963;42.694;23.600;2023-06-22T01:53:23;95608.25;;;17.37;100.00
40245;BME280;25963;42.694;23.600;2023-06-22T01:55:49;95612.22;;;17.13;100.00
40245;BME280;25963;42.694;23.600;2023-06-22T01:58:15;95586.69;;;17.17;100.00
40245;BME280;25963;42.694;23.600;2023-06-22T02:00:47;95615.47;;;17.37;100.00
40245;BME280;25963;42.694;23.600;2023-06-22T02:03:21;95618.44;;;17.40;100.00
40245;BME280;25963;42.694;23.600;2023-06-22T02:05:50;95608.63;;;17.46;100.00
40245;BME280;25963;42.694;23.600;2023-06-22T02:08:22;95623.41;;;17.53;100.00
40245;BME280;25963;42.694;23.600;2023-06-22T02:10:51;95619.97;;;17.58;100.00
40245;BME280;25963;42.694;23.600;2023-06-22T02:13:17;95626.66;;;17.61;100.00
40245;BME280;25963;42.694;23.600;2023-06-22T02:15:43;95635.47;;;17.61;100.00
40245;BME280;25963;42.694;23.600;2023-06-22T02:18:09;95632.28;;;17.59;100.00
40245;BME280;25963;42.694;23.600;2023-06-22T02:20:38;95632.13;;;17.49;100.00
40245;BME280;25963;42.694;23.600;2023-06-22T02:23:05;95630.03;;;17.51;100.00
40245;BME280;25963;42.694;23.600;2023-06-22T02:25:31;95616.13;;;17.49;100.00
40245;BME280;25963;42.694;23.600;2023-06-22T02:27:57;95623.34;;;17.26;100.00
40245;BME280;25963;42.694;23.600;2023-06-22T02:30:22;95604.66;;;17.04;100.00
40245;BME280;25963;42.694;23.600;2023-06-22T02:32:48;95607.13;;;17.11;100.00
40245;BME280;25963;42.694;23.600;2023-06-22T02:35:13;95619.00;;;17.20;100.00
40245;BME280;25963;42.694;23.600;2023-06-22T02:37:39;95621.59;;;17.15;100.00
40245;BME280;25963;42.694;23.600;2023-06-22T02:40:09;95619.53;;;17.22;100.00
40245;BME280;25963;42.694;23.600;2023-06-22T02:42:36;95622.28;;;17.27;100.00
40245;BME280;25963;42.694;23.600;2023-06-22T02:45:01;95622.72;;;17.19;100.00
40245;BME280;25963;42.694;23.600;2023-06-22T02:47:27;95617.94;;;17.21;100.00
40245;BME280;25963;42.694;23.600;2023-06-22T02:49:52;95626.63;;;17.11;100.00
40245;BME280;25963;42.694;23.600;2023-06-22T02:52:18;95620.78;;;17.15;100.00
40245;BME280;25963;42.694;23.600;2023-06-22T02:54:43;95620.34;;;17.23;100.00
40245;BME280;25963;42.694;23.600;2023-06-22T02:57:11;95630.97;;;17.18;100.00
40245;BME280;25963;42.694;23.600;2023-06-22T02:59:42;95630.78;;;17.24;100.00
40245;BME280;25963;42.694;23.600;2023-06-22T03:02:08;95636.72;;;17.31;100.00
40245;BME280;25963;42.694;23.600;2023-06-22T03:04:35;95635.69;;;17.32;100.00
40245;BME280;25963;42.694;23.600;2023-06-22T03:07:00;95645.53;;;17.32;100.00
40245;BME280;25963;42.694;23.600;2023-06-22T03:09:27;95647.22;;;17.38;100.00
40245;BME280;25963;42.694;23.600;2023-06-22T03:11:53;95659.31;;;17.46;100.00
40245;BME280;25963;42.694;23.600;2023-06-22T03:14:19;95649.13;;;17.43;100.00
40245;BME280;25963;42.694;23.600;2023-06-22T03:16:44;95657.19;;;17.48;100.00
40245;BME280;25963;42.694;23.600;2023-06-22T03:19:10;95626.31;;;17.52;100.00
40245;BME280;25963;42.694;23.600;2023-06-22T03:21:37;95642.31;;;17.74;100.00
40245;BME280;25963;42.694;23.600;2023-06-22T03:24:04;95636.78;;;17.81;100.00
40245;BME280;25963;42.694;23.600;2023-06-22T03:26:30;95640.84;;;17.88;100.00
40245;BME280;25963;42.694;23.600;2023-06-22T03:28:55;95637.53;;;18.03;100.00
40245;BME280;25963;42.694;23.600;2023-06-22T03:31:21;95639.59;;;18.55;100.00
40245;BME280;25963;42.694;23.600;2023-06-22T03:33:47;95647.06;;;18.90;100.00
40245;BME280;25963;42.694;23.600;2023-06-22T03:36:14;95651.47;;;19.07;100.00
40245;BME280;25963;42.694;23.600;2023-06-22T03:38:44;95649.66;;;19.23;100.00
40245;BME280;25963;42.694;23.600;2023-06-22T03:41:30;95662.75;;;19.67;100.00
40245;BME280;25963;42.694;23.600;2023-06-22T03:43:55;95663.91;;;19.96;100.00
40245;BME280;25963;42.694;23.600;2023-06-22T03:46:21;95662.84;;;20.13;100.00
40245;BME280;25963;42.694;23.600;2023-06-22T03:48:46;95667.47;;;20.48;100.00
40245;BME280;25963;42.694;23.600;2023-06-22T03:51:12;95668.53;;;20.88;100.00
40245;BME280;25963;42.694;23.600;2023-06-22T03:53:37;95674.94;;;21.23;100.00
40245;BME280;25963;42.694;23.600;2023-06-22T03:56:03;95667.34;;;21.60;100.00
40245;BME280;25963;42.694;23.600;2023-06-22T03:58:28;95663.06;;;22.14;92.78
40245;BME280;25963;42.694;23.600;2023-06-22T04:00:58;95658.22;;;22.85;87.91
40245;BME280;25963;42.694;23.600;2023-06-22T04:03:23;95660.97;;;23.62;82.25
40245;BME280;25963;42.694;23.600;2023-06-22T04:05:48;95665.88;;;24.22;77.75
40245;BME280;25963;42.694;23.600;2023-06-22T04:08:14;95673.88;;;24.65;74.80
40245;BME280;25963;42.694;23.600;2023-06-22T04:10:40;95665.03;;;25.11;73.49
40245;BME280;25963;42.694;23.600;2023-06-22T04:13:06;95666.56;;;25.31;72.83
40245;BME280;25963;42.694;23.600;2023-06-22T04:15:32;95676.97;;;25.23;70.85
40245;BME280;25963;42.694;23.600;2023-06-22T04:17:57;95674.06;;;25.20;70.39
40245;BME280;25963;42.694;23.600;2023-06-22T04:20:23;95672.25;;;25.15;72.11
40245;BME280;25963;42.694;23.600;2023-06-22T04:22:52;95677.41;;;24.65;73.39
40245;BME280;25963;42.694;23.600;2023-06-22T04:25:18;95673.06;;;24.07;76.46
40245;BME280;25963;42.694;23.600;2023-06-22T04:27:43;95656.38;;;23.62;80.53
40245;BME280;25963;42.694;23.600;2023-06-22T04:30:09;95667.66;;;23.69;82.43
40245;BME280;25963;42.694;23.600;2023-06-22T04:32:35;95665.91;;;23.79;81.44
40245;BME280;25963;42.694;23.600;2023-06-22T04:35:05;95665.88;;;24.22;78.74
40245;BME280;25963;42.694;23.600;2023-06-22T04:37:31;95656.63;;;24.47;76.42
40245;BME280;25963;42.694;23.600;2023-06-22T04:39:57;95653.94;;;24.79;74.30
40245;BME280;25963;42.694;23.600;2023-06-22T04:42:22;95660.22;;;25.08;76.09
40245;BME280;25963;42.694;23.600;2023-06-22T04:44:48;95660.06;;;25.32;73.25
40245;BME280;25963;42.694;23.600;2023-06-22T04:47:13;95664.47;;;25.69;70.06
40245;BME280;25963;42.694;23.600;2023-06-22T04:49:39;95661.53;;;26.21;68.53
40245;BME280;25963;42.694;23.600;2023-06-22T04:52:11;95658.47;;;26.72;67.45
40245;BME280;25963;42.694;23.600;2023-06-22T04:54:38;95653.06;;;27.03;63.90
40245;BME280;25963;42.694;23.600;2023-06-22T04:57:05;95659.53;;;27.47;62.15
40245;BME280;25963;42.694;23.600;2023-06-22T04:59:36;95659.00;;;27.05;63.68
40245;BME280;25963;42.694;23.600;2023-06-22T05:02:02;95664.91;;;27.39;62.61
40245;BME280;25963;42.694;23.600;2023-06-22T05:04:29;95663.03;;;27.79;63.16
40245;BME280;25963;42.694;23.600;2023-06-22T05:07:01;95675.53;;;28.23;60.09
40245;BME280;25963;42.694;23.600;2023-06-22T05:09:26;95669.47;;;28.09;60.06
40245;BME280;25963;42.694;23.600;2023-06-22T05:11:52;95684.28;;;28.03;59.59
40245;BME280;25963;42.694;23.600;2023-06-22T05:14:18;95666.84;;;27.78;60.07
40245;BME280;25963;42.694;23.600;2023-06-22T05:16:46;95663.38;;;27.95;60.79
40245;BME280;25963;42.694;23.600;2023-06-22T05:19:11;95679.69;;;28.12;60.63
40245;BME280;25963;42.694;23.600;2023-06-22T05:21:37;95681.69;;;27.81;59.55
40245;BME280;25963;42.694;23.600;2023-06-22T05:24:04;95680.09;;;27.80;59.94
40245;BME280;25963;42.694;23.600;2023-06-22T05:26:31;95684.63;;;28.10;58.18
40245;BME280;25963;42.694;23.600;2023-06-22T05:28:57;95681.50;;;28.60;57.91
40245;BME280;25963;42.694;23.600;2023-06-22T05:31:23;95670.44;;;28.92;58.59
40245;BME280;25963;42.694;23.600;2023-06-22T05:33:50;95687.84;;;28.99;56.91
40245;BME280;25963;42.694;23.600;2023-06-22T05:36:16;95686.59;;;29.05;56.32
40245;BME280;25963;42.694;23.600;2023-06-22T05:38:42;95690.16;;;29.44;53.05
40245;BME280;25963;42.694;23.600;2023-06-22T05:41:07;95657.97;;;29.64;55.31
40245;BME280;25963;42.694;23.600;2023-06-22T05:43:34;95673.81;;;29.91;58.44
40245;BME280;25963;42.694;23.600;2023-06-22T05:46:00;95681.19;;;30.41;52.19
40245;BME280;25963;42.694;23.600;2023-06-22T05:48:26;95654.38;;;30.73;49.37
40245;BME280;25963;42.694;23.600;2023-06-22T05:50:52;95674.25;;;31.07;49.66
40245;BME280;25963;42.694;23.600;2023-06-22T05:53:18;95683.69;;;31.09;47.83
40245;BME280;25963;42.694;23.600;2023-06-22T05:55:43;95680.88;;;31.18;48.94
40245;BME280;25963;42.694;23.600;2023-06-22T05:58:09;95687.00;;;31.15;48.98
40245;BME280;25963;42.694;23.600;2023-06-22T06:00:35;95689.38;;;30.83;49.48
40245;BME280;25963;42.694;23.600;2023-06-22T06:03:01;95688.56;;;31.16;48.05
40245;BME280;25963;42.694;23.600;2023-06-22T06:05:33;95685.63;;;31.09;49.40
40245;BME280;25963;42.694;23.600;2023-06-22T06:08:02;95683.13;;;31.16;49.01
40245;BME280;25963;42.694;23.600;2023-06-22T06:10:28;95678.06;;;31.27;47.82
40245;BME280;25963;42.694;23.600;2023-06-22T06:12:55;95679.59;;;31.49;49.56
40245;BME280;25963;42.694;23.600;2023-06-22T06:15:20;95681.50;;;31.36;50.04
40245;BME280;25963;42.694;23.600;2023-06-22T06:17:53;95677.94;;;31.23;49.29
40245;BME280;25963;42.694;23.600;2023-06-22T06:20:22;95679.94;;;31.14;49.42
40245;BME280;25963;42.694;23.600;2023-06-22T06:22:49;95679.63;;;31.15;49.35
40245;BME280;25963;42.694;23.600;2023-06-22T06:25:14;95672.94;;;30.92;48.46
40245;BME280;25963;42.694;23.600;2023-06-22T06:27:46;95659.69;;;30.90;49.16
40245;BME280;25963;42.694;23.600;2023-06-22T06:30:12;95666.97;;;30.78;52.89
40245;BME280;25963;42.694;23.600;2023-06-22T06:32:39;95677.06;;;30.77;56.63
40245;BME280;25963;42.694;23.600;2023-06-22T06:35:09;95666.59;;;30.67;51.35
40245;BME280;25963;42.694;23.600;2023-06-22T06:37:42;95671.81;;;30.72;51.04
40245;BME280;25963;42.694;23.600;2023-06-22T06:40:08;95649.53;;;30.58;47.41
40245;BME280;25963;42.694;23.600;2023-06-22T06:42:37;95668.72;;;30.61;52.86
40245;BME280;25963;42.694;23.600;2023-06-22T06:45:04;95672.72;;;30.64;51.51
40245;BME280;25963;42.694;23.600;2023-06-22T06:47:30;95661.28;;;30.50;50.07
40245;BME280;25963;42.694;23.600;2023-06-22T06:49:55;95680.53;;;30.65;53.86
40245;BME280;25963;42.694;23.600;2023-06-22T06:52:21;95667.59;;;30.83;54.29
40245;BME280;25963;42.694;23.600;2023-06-22T06:54:46;95664.00;;;30.91;50.48
40245;BME280;25963;42.694;23.600;2023-06-22T06:57:12;95664.31;;;30.69;52.52
40245;BME280;25963;42.694;23.600;2023-06-22T06:59:38;95660.25;;;30.75;52.12
40245;BME280;25963;42.694;23.600;2023-06-22T07:02:04;95673.03;;;31.16;51.53
40245;BME280;25963;42.694;23.600;2023-06-22T07:04:30;95670.31;;;30.83;56.28
40245;BME280;25963;42.694;23.600;2023-06-22T07:06:55;95664.50;;;31.06;50.94
40245;BME280;25963;42.694;23.600;2023-06-22T07:09:21;95661.34;;;30.83;50.97
40245;BME280;25963;42.694;23.600;2023-06-22T07:11:46;95658.50;;;30.79;47.38
40245;BME280;25963;42.694;23.600;2023-06-22T07:14:12;95653.91;;;31.04;50.01
40245;BME280;25963;42.694;23.600;2023-06-22T07:16:37;95653.63;;;31.18;48.97
40245;BME280;25963;42.694;23.600;2023-06-22T07:19:03;95656.25;;;30.81;51.23
40245;BME280;25963;42.694;23.600;2023-06-22T07:21:28;95646.97;;;30.40;51.16
40245;BME280;25963;42.694;23.600;2023-06-22T07:23:53;95662.66;;;29.46;55.28
40245;BME280;25963;42.694;23.600;2023-06-22T07:26:20;95655.63;;;29.45;56.02
40245;BME280;25963;42.694;23.600;2023-06-22T07:28:45;95655.16;;;29.81;58.93
40245;BME280;25963;42.694;23.600;2023-06-22T07:31:11;95648.22;;;29.54;59.45
40245;BME280;25963;42.694;23.600;2023-06-22T07:33:36;95650.28;;;29.95;59.41
40245;BME280;25963;42.694;23.600;2023-06-22T07:36:02;95649.81;;;29.64;52.33
40245;BME280;25963;42.694;23.600;2023-06-22T07:38:32;95646.34;;;29.84;60.86
40245;BME280;25963;42.694;23.600;2023-06-22T07:40:58;95655.72;;;30.25;59.49
40245;BME280;25963;42.694;23.600;2023-06-22T07:43:23;95659.97;;;30.56;62.42
40245;BME280;25963;42.694;23.600;2023-06-22T07:45:49;95659.41;;;30.83;55.86
40245;BME280;25963;42.694;23.600;2023-06-22T07:48:21;95663.94;;;30.79;54.42
40245;BME280;25963;42.694;23.600;2023-06-22T07:50:47;95646.88;;;30.70;53.57
40245;BME280;25963;42.694;23.600;2023-06-22T07:53:13;95645.00;;;30.62;51.14
40245;BME280;25963;42.694;23.600;2023-06-22T07:55:38;95643.38;;;30.28;57.34
40245;BME280;25963;42.694;23.600;2023-06-22T07:58:04;95644.06;;;30.16;51.95
40245;BME280;25963;42.694;23.600;2023-06-22T08:00:29;95648.91;;;30.10;54.18
40245;BME280;25963;42.694;23.600;2023-06-22T08:02:55;95650.59;;;30.23;54.22
40245;BME280;25963;42.694;23.600;2023-06-22T08:05:20;95649.03;;;30.14;52.47
40245;BME280;25963;42.694;23.600;2023-06-22T08:07:46;95648.66;;;30.24;52.06
40245;BME280;25963;42.694;23.600;2023-06-22T08:10:11;95638.84;;;30.32;58.84
40245;BME280;25963;42.694;23.600;2023-06-22T08:12:41;95632.59;;;30.10;52.21
40245;BME280;25963;42.694;23.600;2023-06-22T08:15:07;95641.38;;;30.58;53.84
40245;BME280;25963;42.694;23.600;2023-06-22T08:17:33;95639.53;;;31.16;55.79
40245;BME280;25963;42.694;23.600;2023-06-22T08:19:59;95640.66;;;31.03;53.43
40245;BME280;25963;42.694;23.600;2023-06-22T08:22:24;95632.09;;;31.37;60.02
40245;BME280;25963;42.694;23.600;2023-06-22T08:24:50;95622.19;;;31.33;52.01
40245;BME280;25963;42.694;23.600;2023-06-22T08:27:15;95631.34;;;31.04;51.79
40245;BME280;25963;42.694;23.600;2023-06-22T08:29:43;95605.44;;;30.98;48.63
40245;BME280;25963;42.694;23.600;2023-06-22T08:32:11;95624.56;;;31.22;56.45
40245;BME280;25963;42.694;23.600;2023-06-22T08:34:37;95619.03;;;31.43;60.09
40245;BME280;25963;42.694;23.600;2023-06-22T08:37:10;95625.63;;;31.67;50.14
40245;BME280;25963;42.694;23.600;2023-06-22T08:39:36;95625.19;;;31.40;50.11
40245;BME280;25963;42.694;23.600;2023-06-22T08:42:02;95619.63;;;31.49;50.50
40245;BME280;25963;42.694;23.600;2023-06-22T08:44:27;95612.72;;;30.93;58.10
40245;BME280;25963;42.694;23.600;2023-06-22T08:46:52;95610.50;;;31.32;65.72
40245;BME280;25963;42.694;23.600;2023-06-22T08:49:18;95614.16;;;31.49;58.33
40245;BME280;25963;42.694;23.600;2023-06-22T08:51:43;95625.66;;;31.91;54.46
40245;BME280;25963;42.694;23.600;2023-06-22T08:54:11;95615.25;;;32.21;53.09
40245;BME280;25963;42.694;23.600;2023-06-22T08:56:36;95605.25;;;32.25;56.37
40245;BME280;25963;42.694;23.600;2023-06-22T08:59:02;95599.53;;;32.31;53.68
40245;BME280;25963;42.694;23.600;2023-06-22T09:01:27;95578.28;;;32.24;54.95
40245;BME280;25963;42.694;23.600;2023-06-22T09:03:53;95609.81;;;32.09;43.63
40245;BME280;25963;42.694;23.600;2023-06-22T09:06:23;95613.38;;;32.50;51.79
40245;BME280;25963;42.694;23.600;2023-06-22T09:08:48;95601.91;;;32.44;51.52
40245;BME280;25963;42.694;23.600;2023-06-22T09:11:14;95610.47;;;32.87;44.48
40245;BME280;25963;42.694;23.600;2023-06-22T09:13:39;95616.00;;;32.74;45.98
40245;BME280;25963;42.694;23.600;2023-06-22T09:16:05;95618.28;;;32.72;46.81
40245;BME280;25963;42.694;23.600;2023-06-22T09:18:31;95603.22;;;33.07;45.36
40245;BME280;25963;42.694;23.600;2023-06-22T09:20:57;95599.78;;;33.26;48.95
40245;BME280;25963;42.694;23.600;2023-06-22T09:23:22;95607.78;;;33.50;46.66
40245;BME280;25963;42.694;23.600;2023-06-22T09:29:09;95598.66;;;33.42;45.35
40245;BME280;25963;42.694;23.600;2023-06-22T09:31:35;95590.41;;;33.74;45.71
40245;BME280;25963;42.694;23.600;2023-06-22T09:34:00;95585.94;;;33.66;46.38
40245;BME280;25963;42.694;23.600;2023-06-22T09:36:25;95588.50;;;33.43;44.69
40245;BME280;25963;42.694;23.600;2023-06-22T09:38:51;95588.88;;;33.57;47.47
40245;BME280;25963;42.694;23.600;2023-06-22T09:41:24;95583.56;;;33.64;44.59
40245;BME280;25963;42.694;23.600;2023-06-22T09:43:50;95596.59;;;33.87;44.46
40245;BME280;25963;42.694;23.600;2023-06-22T09:46:16;95603.78;;;33.95;44.73
40245;BME280;25963;42.694;23.600;2023-06-22T09:48:42;95579.38;;;33.86;46.97
40245;BME280;25963;42.694;23.600;2023-06-22T09:51:07;95583.47;;;33.61;43.27
40245;BME280;25963;42.694;23.600;2023-06-22T09:53:33;95587.72;;;33.58;46.58
40245;BME280;25963;42.694;23.600;2023-06-22T09:56:00;95591.66;;;33.77;43.53
40245;BME280;25963;42.694;23.600;2023-06-22T09:58:25;95579.44;;;33.90;49.76
40245;BME280;25963;42.694;23.600;2023-06-22T10:00:51;95588.13;;;33.29;42.07
40245;BME280;25963;42.694;23.600;2023-06-22T10:03:16;95580.38;;;33.47;42.50
40245;BME280;25963;42.694;23.600;2023-06-22T10:05:42;95576.13;;;33.81;49.61
40245;BME280;25963;42.694;23.600;2023-06-22T10:08:07;95570.34;;;33.86;46.12
40245;BME280;25963;42.694;23.600;2023-06-22T10:10:35;95572.22;;;33.82;42.46
40245;BME280;25963;42.694;23.600;2023-06-22T10:13:07;95568.91;;;33.73;40.16
40245;BME280;25963;42.694;23.600;2023-06-22T10:15:34;95569.28;;;33.91;42.65
40245;BME280;25963;42.694;23.600;2023-06-22T10:17:59;95566.28;;;33.45;47.55
40245;BME280;25963;42.694;23.600;2023-06-22T10:20:25;95550.66;;;33.45;45.90
40245;BME280;25963;42.694;23.600;2023-06-22T10:22:51;95562.56;;;33.69;38.98
40245;BME280;25963;42.694;23.600;2023-06-22T10:25:17;95564.50;;;33.05;39.23
40245;BME280;25963;42.694;23.600;2023-06-22T10:27:42;95552.34;;;33.02;39.53
40245;BME280;25963;42.694;23.600;2023-06-22T10:30:09;95558.34;;;33.24;42.42
40245;BME280;25963;42.694;23.600;2023-06-22T10:32:35;95559.69;;;33.30;46.83
40245;BME280;25963;42.694;23.600;2023-06-22T10:35:02;95560.09;;;33.63;43.83
40245;BME280;25963;42.694;23.600;2023-06-22T10:37:27;95569.72;;;33.26;39.75
40245;BME280;25963;42.694;23.600;2023-06-22T10:39:52;95549.88;;;33.29;41.94
40245;BME280;25963;42.694;23.600;2023-06-22T10:42:18;95548.78;;;33.49;40.53
40245;BME280;25963;42.694;23.600;2023-06-22T10:44:43;95556.69;;;33.51;38.17
40245;BME280;25963;42.694;23.600;2023-06-22T10:47:09;95554.84;;;33.74;39.37
40245;BME280;25963;42.694;23.600;2023-06-22T10:49:38;95548.25;;;33.95;43.45
40245;BME280;25963;42.694;23.600;2023-06-22T10:52:04;95527.50;;;34.09;37.22
40245;BME280;25963;42.694;23.600;2023-06-22T10:54:29;95542.84;;;33.79;41.95
40245;BME280;25963;42.694;23.600;2023-06-22T10:56:55;95551.97;;;34.22;40.25
40245;BME280;25963;42.694;23.600;2023-06-22T10:59:20;95544.66;;;33.91;38.58
40245;BME280;25963;42.694;23.600;2023-06-22T11:01:46;95527.09;;;34.07;40.10
40245;BME280;25963;42.694;23.600;2023-06-22T11:04:12;95528.81;;;34.35;39.85
40245;BME280;25963;42.694;23.600;2023-06-22T11:06:37;95531.59;;;34.19;37.47
40245;BME280;25963;42.694;23.600;2023-06-22T11:09:03;95534.91;;;34.09;40.73
40245;BME280;25963;42.694;23.600;2023-06-22T11:11:29;95538.75;;;33.53;37.57
40245;BME280;25963;42.694;23.600;2023-06-22T11:13:54;95537.66;;;33.74;36.63
40245;BME280;25963;42.694;23.600;2023-06-22T11:16:20;95517.97;;;34.03;41.90
40245;BME280;25963;42.694;23.600;2023-06-22T11:18:45;95523.28;;;33.96;44.20
40245;BME280;25963;42.694;23.600;2023-06-22T11:21:11;95536.91;;;33.93;42.79
40245;BME280;25963;42.694;23.600;2023-06-22T11:23:36;95540.94;;;33.63;40.52
40245;BME280;25963;42.694;23.600;2023-06-22T11:26:02;95540.69;;;33.37;36.25
40245;BME280;25963;42.694;23.600;2023-06-22T11:28:27;95537.63;;;33.23;38.15
40245;BME280;25963;42.694;23.600;2023-06-22T11:30:53;95518.66;;;33.14;37.70
40245;BME280;25963;42.694;23.600;2023-06-22T11:33:18;95528.81;;;33.13;40.67
40245;BME280;25963;42.694;23.600;2023-06-22T11:35:44;95528.97;;;32.89;43.66
40245;BME280;25963;42.694;23.600;2023-06-22T11:38:09;95535.75;;;32.95;43.02
40245;BME280;25963;42.694;23.600;2023-06-22T11:40:35;95521.22;;;33.23;45.79
40245;BME280;25963;42.694;23.600;2023-06-22T11:43:00;95529.81;;;33.72;37.90
40245;BME280;25963;42.694;23.600;2023-06-22T11:45:26;95524.41;;;34.11;38.97
40245;BME280;25963;42.694;23.600;2023-06-22T11:47:52;95519.97;;;33.87;37.18
40245;BME280;25963;42.694;23.600;2023-06-22T11:50:17;95525.13;;;33.73;40.30
40245;BME280;25963;42.694;23.600;2023-06-22T11:52:43;95526.56;;;33.67;37.69
40245;BME280;25963;42.694;23.600;2023-06-22T11:55:08;95521.88;;;33.67;37.51
40245;BME280;25963;42.694;23.600;2023-06-22T11:57:35;95526.00;;;33.77;39.58
40245;BME280;25963;42.694;23.600;2023-06-22T12:00:02;95528.50;;;32.87;37.78
40245;BME280;25963;42.694;23.600;2023-06-22T12:02:31;95517.28;;;33.04;41.19
40245;BME280;25963;42.694;23.600;2023-06-22T12:04:57;95525.69;;;32.67;40.66
40245;BME280;25963;42.694;23.600;2023-06-22T12:07:23;95529.59;;;32.54;41.40
40245;BME280;25963;42.694;23.600;2023-06-22T12:09:49;95521.25;;;32.47;42.35
40245;BME280;25963;42.694;23.600;2023-06-22T12:12:15;95544.75;;;32.23;47.27
40245;BME280;25963;42.694;23.600;2023-06-22T12:14:40;95535.84;;;32.26;55.83
40245;BME280;25963;42.694;23.600;2023-06-22T12:17:05;95526.38;;;32.64;71.09
40245;BME280;25963;42.694;23.600;2023-06-22T12:19:31;95533.63;;;32.16;47.70
40245;BME280;25963;42.694;23.600;2023-06-22T12:21:57;95516.25;;;32.37;49.92
40245;BME280;25963;42.694;23.600;2023-06-22T12:24:22;95540.13;;;32.84;54.13
40245;BME280;25963;42.694;23.600;2023-06-22T12:26:48;95540.63;;;33.02;49.62
40245;BME280;25963;42.694;23.600;2023-06-22T12:29:14;95539.13;;;33.04;45.54
40245;BME280;25963;42.694;23.600;2023-06-22T12:31:39;95525.56;;;33.24;47.84
40245;BME280;25963;42.694;23.600;2023-06-22T12:34:04;95531.38;;;33.06;47.34
40245;BME280;25963;42.694;23.600;2023-06-22T12:36:30;95533.19;;;32.70;48.44
40245;BME280;25963;42.694;23.600;2023-06-22T12:38:55;95532.97;;;32.63;55.54
40245;BME280;25963;42.694;23.600;2023-06-22T12:41:21;95531.84;;;32.80;48.58
40245;BME280;25963;42.694;23.600;2023-06-22T12:43:46;95531.00;;;32.92;44.72
40245;BME280;25963;42.694;23.600;2023-06-22T12:46:12;95523.84;;;32.87;49.10
40245;BME280;25963;42.694;23.600;2023-06-22T12:48:37;95517.19;;;33.01;48.91
40245;BME280;25963;42.694;23.600;2023-06-22T12:51:07;95525.22;;;32.65;45.31
40245;BME280;25963;42.694;23.600;2023-06-22T12:53:33;95521.63;;;32.93;44.36
40245;BME280;25963;42.694;23.600;2023-06-22T12:55:59;95516.53;;;32.91;42.61
40245;BME280;25963;42.694;23.600;2023-06-22T12:58:24;95521.47;;;32.86;43.98